Time;durP1;ratioP1;P1;durP2;ratioP2;P2;SDS_P1;SDS_P2;PMS_P1;PMS_P2;Temp;Humidity;BMP_temperature;BMP_pressure;BME280_temperature;BME280_humidity;BME280_pressure;Samples;Min_cycle;Max_cycle;Signal;HPM_P1;HPM_P2
2022/06/04 00:02:15;;;;;;;7.53;6.83;;;;;;;26.22;64.96;99808.72;5074250;28;20199;-62
2022/06/04 00:04:41;;;;;;;8.30;6.43;;;;;;;26.18;64.81;99799.50;5073486;28;20192;-61
2022/06/04 00:07:10;;;;;;;10.90;7.00;;;;;;;25.84;65.16;99793.31;5074103;28;20195;-61
2022/06/04 00:09:36;;;;;;;7.27;6.77;;;;;;;25.74;65.26;99793.41;5074194;28;20200;-61
2022/06/04 00:17:37;;;;;;;6.97;6.20;;;;;;;25.85;66.38;99781.31;5061039;28;20699;-63
2022/06/04 00:20:05;;;;;;;7.03;6.53;;;;;;;25.89;65.02;99783.16;5073717;28;20215;-63
2022/06/04 00:22:33;;;;;;;9.57;6.80;;;;;;;25.91;65.52;99780.16;5074005;28;20333;-63
2022/06/04 00:25:00;;;;;;;7.50;6.80;;;;;;;25.96;65.88;99777.44;5074553;28;20260;-62
2022/06/04 00:27:26;;;;;;;6.83;6.07;;;;;;;26.00;66.27;99770.31;5073557;28;20660;-62
2022/06/04 00:29:53;;;;;;;19.07;6.57;;;;;;;26.06;65.46;99782.75;5074103;28;20196;-62
2022/06/04 00:32:20;;;;;;;6.47;6.03;;;;;;;26.09;65.51;99777.53;5073789;28;20192;-62
2022/06/04 00:34:47;;;;;;;6.67;6.27;;;;;;;26.16;65.59;99774.44;5074027;28;20196;-63
2022/06/04 00:37:14;;;;;;;7.33;6.53;;;;;;;26.19;66.49;99760.25;5073459;28;20674;-62
2022/06/04 00:39:42;;;;;;;8.20;6.70;;;;;;;26.21;66.24;99763.53;5074157;28;20273;-62
2022/06/04 00:42:13;;;;;;;7.00;6.40;;;;;;;26.15;67.20;99770.94;5073669;28;20241;-62
2022/06/04 00:45:13;;;;;;;6.40;5.83;;;;;;;26.07;67.45;99765.31;5074182;28;20275;-62
2022/06/04 00:47:41;;;;;;;6.37;5.87;;;;;;;26.11;67.70;99774.53;5074088;28;20639;-62
2022/06/04 00:50:08;;;;;;;7.50;6.80;;;;;;;26.07;67.60;99774.28;5073518;28;20227;-63
2022/06/04 00:52:36;;;;;;;8.27;7.53;;;;;;;25.84;68.67;99766.09;5073518;28;20199;-62
2022/06/04 00:55:07;;;;;;;7.87;7.40;;;;;;;25.65;69.43;99766.03;5073331;28;20191;-62
2022/06/04 00:58:13;;;;;;;6.93;6.40;;;;;;;25.57;70.60;99774.81;5074236;28;20192;-63
2022/06/04 01:00:46;;;;;;;6.67;6.20;;;;;;;25.57;70.94;99768.53;5069933;28;20216;-63
2022/06/04 01:03:34;;;;;;;6.60;6.30;;;;;;;25.42;71.47;99766.78;5073653;28;20184;-62
2022/06/04 01:06:14;;;;;;;7.03;6.43;;;;;;;25.41;71.71;99767.06;5073757;28;20218;-62
2022/06/04 01:09:25;;;;;;;8.40;7.70;;;;;;;25.34;70.65;99763.84;5074014;28;20245;-62
2022/06/04 01:12:12;;;;;;;7.67;7.10;;;;;;;25.20;71.17;99757.41;5045134;28;20709;-63
2022/06/04 01:14:56;;;;;;;8.20;7.33;;;;;;;24.98;72.22;99760.56;5072781;28;20647;-62
2022/06/04 01:17:32;;;;;;;7.63;7.03;;;;;;;24.90;73.10;99764.72;5073197;28;20291;-63
2022/06/04 01:20:11;;;;;;;7.73;7.33;;;;;;;24.90;73.75;99764.72;5073216;28;20208;-62
2022/06/04 01:23:16;;;;;;;8.97;7.47;;;;;;;24.82;73.52;99767.22;5073764;28;20187;-62
2022/06/04 01:25:54;;;;;;;8.67;7.93;;;;;;;24.67;74.29;99759.97;5054855;28;20200;-62
2022/06/04 01:28:23;;;;;;;9.63;7.43;;;;;;;24.60;75.62;99764.06;5072753;28;20192;-62
2022/06/04 01:30:52;;;;;;;8.27;7.40;;;;;;;24.59;75.12;99763.25;5072316;28;20204;-62
2022/06/04 01:33:21;;;;;;;8.60;7.80;;;;;;;24.53;76.00;99758.94;5072396;28;20583;-62
2022/06/04 01:35:53;;;;;;;8.57;7.87;;;;;;;24.48;76.08;99755.44;5072329;28;20196;-63
2022/06/04 01:38:28;;;;;;;9.03;7.90;;;;;;;24.46;76.40;99753.00;5072588;28;20648;-63
2022/06/04 01:41:03;;;;;;;8.60;7.57;;;;;;;24.36;76.58;99747.63;5072092;28;20754;-62
2022/06/04 01:43:34;;;;;;;8.30;7.60;;;;;;;24.40;76.25;99743.25;5072563;28;20247;-62
2022/06/04 01:46:13;;;;;;;8.37;7.67;;;;;;;24.40;76.62;99740.56;5072595;28;20187;-62
2022/06/04 01:48:43;;;;;;;7.43;6.73;;;;;;;24.50;75.95;99743.19;5072987;28;20542;-62
2022/06/04 01:51:12;;;;;;;11.20;7.67;;;;;;;24.58;74.85;99744.50;5072808;28;20317;-62
2022/06/04 01:53:42;;;;;;;7.63;6.87;;;;;;;24.58;74.85;99749.94;5072294;28;20210;-61
2022/06/04 01:56:14;;;;;;;7.87;7.27;;;;;;;24.57;75.64;99754.56;5072675;28;20195;-61
2022/06/04 01:58:49;;;;;;;8.63;7.70;;;;;;;24.52;75.12;99754.59;5072918;28;20294;-62
2022/06/04 02:01:26;;;;;;;8.50;7.60;;;;;;;24.42;75.19;99740.28;5072037;28;20267;-62
2022/06/04 02:03:58;;;;;;;8.80;8.10;;;;;;;24.42;75.26;99746.50;5072080;28;20736;-62
2022/06/04 02:06:29;;;;;;;8.40;7.80;;;;;;;24.12;75.97;99752.09;5073151;28;20619;-62
2022/06/04 02:08:59;;;;;;;9.00;8.13;;;;;;;23.83;77.30;99764.63;5072113;28;20261;-62
2022/06/04 02:11:27;;;;;;;15.73;9.30;;;;;;;23.62;77.31;99759.53;5071837;28;20195;-62
2022/06/04 02:13:59;;;;;;;11.00;10.10;;;;;;;23.38;78.19;99756.56;5072862;28;20261;-62
2022/06/04 02:16:32;;;;;;;9.90;8.87;;;;;;;23.24;78.69;99766.31;5072470;28;20220;-62
2022/06/04 02:19:01;;;;;;;10.43;9.53;;;;;;;23.20;78.96;99765.25;5072988;28;20604;-62
2022/06/04 02:21:31;;;;;;;10.37;9.43;;;;;;;23.22;78.89;99767.69;5072117;28;20255;-61
2022/06/04 02:23:59;;;;;;;10.33;8.33;;;;;;;23.18;78.95;99772.00;5071736;28;20194;-62
2022/06/04 02:26:27;;;;;;;10.03;9.13;;;;;;;23.19;78.77;99769.00;5071803;28;20194;-62
2022/06/04 02:28:58;;;;;;;8.53;7.87;;;;;;;23.37;78.61;99776.66;5075350;28;20206;-62
2022/06/04 02:31:34;;;;;;;9.47;8.57;;;;;;;23.56;77.70;99776.91;5077227;28;20222;-61
2022/06/04 02:34:12;;;;;;;8.37;7.63;;;;;;;23.73;76.88;99782.84;5076703;28;20623;-62
2022/06/04 02:36:46;;;;;;;8.80;8.20;;;;;;;23.75;76.04;99778.75;5076706;28;20186;-62
2022/06/04 02:39:17;;;;;;;8.87;8.00;;;;;;;23.81;75.64;99791.22;5075798;28;20244;-62
2022/06/04 02:41:50;;;;;;;10.63;8.50;;;;;;;23.88;75.29;99788.22;5076214;28;20210;-62
2022/06/04 02:44:27;;;;;;;10.23;9.27;;;;;;;23.92;74.48;99792.84;5075547;28;20605;-62
2022/06/04 02:47:02;;;;;;;11.67;10.30;;;;;;;23.69;75.46;99792.63;5075475;28;20277;-62
2022/06/04 02:49:38;;;;;;;15.90;11.77;;;;;;;23.54;75.65;99782.59;5075354;28;20200;-62
2022/06/04 02:52:09;;;;;;;11.83;10.70;;;;;;;23.54;76.14;99798.88;5075583;28;20276;-62
2022/06/04 02:54:40;;;;;;;13.90;12.70;;;;;;;23.54;75.48;99801.59;5075409;28;20186;-63
2022/06/04 02:57:11;;;;;;;11.97;10.97;;;;;;;23.56;75.72;99804.81;5075318;28;20648;-62
2022/06/04 02:59:41;;;;;;;13.60;12.17;;;;;;;23.60;75.17;99797.75;5075394;28;20193;-62
2022/06/04 03:02:11;;;;;;;11.73;10.30;;;;;;;23.71;75.54;99804.00;5075549;28;20191;-62
2022/06/04 03:04:42;;;;;;;12.27;10.97;;;;;;;23.86;75.51;99807.50;5075166;28;20284;-62
2022/06/04 03:07:10;;;;;;;14.30;11.70;;;;;;;23.96;74.23;99815.66;5075518;28;20201;-62
2022/06/04 03:09:38;;;;;;;12.23;11.00;;;;;;;24.06;73.38;99812.09;5075427;28;20227;-62
2022/06/04 03:12:06;;;;;;;10.73;9.63;;;;;;;24.12;73.43;99809.09;5075176;28;20554;-62
2022/06/04 03:14:33;;;;;;;10.13;9.43;;;;;;;24.21;72.66;99818.28;5075171;28;20202;-62
2022/06/04 03:17:01;;;;;;;10.73;9.70;;;;;;;24.25;72.42;99811.22;5075048;28;20260;-62
2022/06/04 03:19:28;;;;;;;13.20;9.53;;;;;;;24.26;71.85;99817.47;5074954;28;20256;-62
2022/06/04 03:21:54;;;;;;;10.97;9.90;;;;;;;24.24;72.37;99820.47;5075380;28;20226;-62
2022/06/04 03:24:21;;;;;;;9.13;8.27;;;;;;;24.33;72.03;99823.41;5074853;28;20256;-62
2022/06/04 03:26:48;;;;;;;8.57;7.93;;;;;;;24.53;71.15;99824.13;5075131;28;20253;-62
2022/06/04 03:29:15;;;;;;;12.53;8.60;;;;;;;24.61;70.47;99825.47;5075406;28;20615;-62
2022/06/04 03:31:41;;;;;;;13.43;8.60;;;;;;;24.69;70.76;99823.00;5074851;28;20198;-62
2022/06/04 03:34:10;;;;;;;11.23;8.47;;;;;;;24.71;69.04;99825.44;5075709;28;20200;-62
2022/06/04 03:36:38;;;;;;;11.63;9.23;;;;;;;24.57;70.14;99825.22;5074922;28;20199;-62
2022/06/04 03:39:06;;;;;;;8.50;7.70;;;;;;;24.77;69.71;99825.13;5073502;28;20667;-62
2022/06/04 03:41:33;;;;;;;9.60;8.80;;;;;;;24.81;68.86;99815.34;5074697;28;20238;-62
2022/06/04 03:44:00;;;;;;;9.53;8.67;;;;;;;24.81;68.38;99809.91;5074437;28;20743;-62
2022/06/04 03:46:28;;;;;;;9.37;8.30;;;;;;;24.91;68.69;99819.91;5074741;28;20253;-62
2022/06/04 03:48:56;;;;;;;8.60;7.77;;;;;;;25.10;68.40;99828.22;5074698;28;20265;-62
2022/06/04 03:51:26;;;;;;;8.87;7.67;;;;;;;25.18;68.02;99835.78;5075190;28;20265;-62
2022/06/04 03:53:53;;;;;;;9.57;7.50;;;;;;;25.28;66.77;99838.44;5074960;28;20183;-62
2022/06/04 03:56:20;;;;;;;7.60;7.07;;;;;;;25.31;67.96;99835.16;5074582;28;20196;-62
2022/06/04 03:58:47;;;;;;;8.83;7.97;;;;;;;25.35;65.82;99839.72;5075099;28;20195;-62
2022/06/04 04:01:16;;;;;;;8.17;7.47;;;;;;;25.45;66.12;99847.00;5074555;28;20244;-62
2022/06/04 04:03:43;;;;;;;9.60;8.73;;;;;;;25.78;65.79;99840.72;5074759;28;20192;-62
2022/06/04 04:06:13;;;;;;;11.10;8.93;;;;;;;26.63;62.75;99848.03;5074757;28;20196;-62
2022/06/04 04:08:42;;;;;;;8.03;7.33;;;;;;;27.52;59.61;99845.09;5073913;28;20196;-62
2022/06/04 04:11:11;;;;;;;7.40;6.90;;;;;;;28.28;55.74;99848.09;5073783;28;20249;-63
2022/06/04 04:13:38;;;;;;;7.40;6.73;;;;;;;28.90;53.79;99855.56;5073881;28;20242;-63
2022/06/04 04:16:06;;;;;;;7.30;6.80;;;;;;;29.53;51.52;99859.06;5073725;28;20196;-63
2022/06/04 04:18:34;;;;;;;7.80;6.93;;;;;;;30.03;49.79;99856.97;5074059;28;20253;-62
2022/06/04 04:21:04;;;;;;;11.30;6.80;;;;;;;30.71;47.20;99866.38;5073570;28;20665;-63
2022/06/04 04:23:31;;;;;;;7.50;6.90;;;;;;;31.25;45.39;99865.81;5074428;28;20187;-63
2022/06/04 04:25:59;;;;;;;11.40;7.20;;;;;;;31.87;44.11;99863.50;5073405;28;20656;-63
2022/06/04 04:28:26;;;;;;;15.70;7.90;;;;;;;32.21;43.26;99857.94;5073824;28;20192;-63
2022/06/04 04:30:52;;;;;;;10.10;8.30;;;;;;;32.80;42.20;99851.31;5073846;28;20238;-63
2022/06/04 04:33:19;;;;;;;7.47;6.70;;;;;;;33.27;40.28;99836.25;5073221;28;20573;-64
2022/06/04 04:35:47;;;;;;;7.13;6.33;;;;;;;33.70;38.45;99842.22;5073720;28;20196;-63
2022/06/04 04:38:15;;;;;;;9.43;6.70;;;;;;;34.03;38.53;99839.44;5073196;28;20196;-64
2022/06/04 04:40:43;;;;;;;6.97;6.37;;;;;;;34.21;37.92;99849.13;5073306;28;20220;-65
2022/06/04 04:43:13;;;;;;;9.00;5.95;;;;;;;34.65;37.22;99864.78;5072836;28;20245;-64
2022/06/04 04:45:44;;;;;;;8.02;6.10;;;;;;;34.91;36.24;99860.53;5073696;28;20242;-63
2022/06/04 04:48:11;;;;;;;8.77;6.20;;;;;;;34.82;36.39;99856.31;5072888;28;20274;-65
2022/06/04 04:50:41;;;;;;;7.55;6.00;;;;;;;34.54;36.17;99853.41;5072136;28;20239;-63
2022/06/04 04:53:11;;;;;;;9.63;5.82;;;;;;;35.02;36.03;99858.13;5073017;28;20192;-64
2022/06/04 04:55:38;;;;;;;5.68;5.18;;;;;;;35.15;35.82;99862.47;5072646;28;20725;-64
2022/06/04 04:58:05;;;;;;;6.25;5.75;;;;;;;35.32;35.15;99863.00;5073307;28;20192;-61
2022/06/04 05:00:34;;;;;;;6.05;5.50;;;;;;;35.44;35.18;99856.66;5073236;28;20216;-63
2022/06/04 05:03:02;;;;;;;6.13;5.53;;;;;;;35.61;34.41;99864.63;5068271;28;20196;-63
2022/06/04 05:05:29;;;;;;;7.97;6.15;;;;;;;35.56;34.96;99870.41;5062948;28;20197;-63
2022/06/04 05:07:55;;;;;;;6.82;5.95;;;;;;;35.71;34.19;99859.41;5062401;28;20184;-63
2022/06/04 05:10:22;;;;;;;9.20;5.65;;;;;;;35.77;34.40;99857.22;5069007;28;20203;-64
2022/06/04 05:12:52;;;;;;;5.70;5.25;;;;;;;36.06;34.17;99859.56;5073395;28;20196;-62
2022/06/04 05:15:18;;;;;;;5.43;5.05;;;;;;;36.29;33.44;99864.16;5072780;28;20187;-62
2022/06/04 05:17:46;;;;;;;6.72;6.03;;;;;;;36.68;32.25;99860.44;5073291;28;20200;-63
2022/06/04 05:20:13;;;;;;;5.57;5.07;;;;;;;36.36;32.78;99863.53;5073772;28;20241;-63
2022/06/04 05:22:50;;;;;;;9.07;5.57;;;;;;;36.62;33.07;99859.06;5073786;28;20328;-63
2022/06/04 05:25:16;;;;;;;5.63;5.15;;;;;;;37.00;32.62;99866.69;5072999;28;20183;-64
2022/06/04 05:27:45;;;;;;;8.55;5.25;;;;;;;36.97;31.91;99868.22;5072488;28;20192;-63
2022/06/04 05:30:16;;;;;;;5.45;5.03;;;;;;;36.77;32.34;99879.59;5072754;28;20623;-63
2022/06/04 05:32:43;;;;;;;30.90;7.93;;;;;;;36.65;32.37;99885.22;5072755;28;20181;-61
2022/06/04 05:35:12;;;;;;;5.72;5.32;;;;;;;36.10;33.36;99888.16;5072691;28;20670;-63
2022/06/04 05:37:39;;;;;;;5.93;5.50;;;;;;;35.66;34.40;99878.19;5072571;28;20241;-63
2022/06/04 05:40:07;;;;;;;10.10;4.82;;;;;;;35.77;33.75;99882.88;5072959;28;20214;-64
2022/06/04 05:42:34;;;;;;;4.88;4.57;;;;;;;35.49;34.59;99884.84;5072518;28;20219;-63
2022/06/04 05:45:01;;;;;;;5.22;4.72;;;;;;;35.18;34.86;99879.16;5064170;28;20234;-63
2022/06/04 05:47:27;;;;;;;5.68;5.18;;;;;;;35.24;34.89;99874.19;5069384;28;20253;-63
2022/06/04 05:49:54;;;;;;;8.43;5.07;;;;;;;35.13;35.56;99878.56;5073215;28;20597;-63
2022/06/04 05:52:23;;;;;;;9.32;5.20;;;;;;;35.23;35.59;99884.41;5072142;28;20200;-63
2022/06/04 05:54:49;;;;;;;13.15;5.55;;;;;;;35.21;35.79;99888.69;5072359;28;20279;-63
2022/06/04 05:57:16;;;;;;;5.25;4.85;;;;;;;35.24;35.80;99879.72;5072257;28;20191;-63
2022/06/04 05:59:43;;;;;;;7.47;5.13;;;;;;;35.58;35.49;99877.19;5072850;28;20253;-64
2022/06/04 06:02:11;;;;;;;8.48;5.38;;;;;;;36.00;34.56;99883.13;5068438;28;20285;-65
2022/06/04 06:04:38;;;;;;;5.30;4.78;;;;;;;35.98;34.96;99885.44;5062765;28;20197;-66
2022/06/04 06:07:04;;;;;;;5.15;4.65;;;;;;;36.08;34.25;99882.16;5064037;28;20734;-65
2022/06/04 06:09:33;;;;;;;6.20;4.85;;;;;;;36.07;34.15;99878.59;5071920;28;20269;-65
2022/06/04 06:12:00;;;;;;;5.60;5.10;;;;;;;36.18;34.18;99889.94;5054428;28;20201;-65
2022/06/04 06:14:26;;;;;;;6.53;4.97;;;;;;;36.02;34.15;99889.13;5052678;28;20200;-65
2022/06/04 06:16:59;;;;;;;7.30;5.10;;;;;;;35.76;33.81;99889.59;5052059;28;20258;-66
2022/06/04 06:19:29;;;;;;;6.32;5.05;;;;;;;35.72;34.36;99879.56;5060558;28;20199;-66
2022/06/04 06:21:56;;;;;;;6.30;5.00;;;;;;;35.66;34.79;99878.19;5072907;28;20564;-65
2022/06/04 06:24:23;;;;;;;5.95;5.10;;;;;;;35.66;35.11;99872.66;5071951;28;20195;-65
2022/06/04 06:26:53;;;;;;;6.00;5.47;;;;;;;36.02;34.33;99880.81;5072685;28;20191;-65
2022/06/04 06:29:23;;;;;;;6.63;5.15;;;;;;;36.39;33.82;99868.38;5071733;28;20196;-65
2022/06/04 06:31:50;;;;;;;8.48;5.10;;;;;;;36.11;33.42;99870.38;5071883;28;20192;-64
2022/06/04 06:34:17;;;;;;;9.30;4.90;;;;;;;36.23;34.08;99867.56;5072189;28;20199;-61
2022/06/04 06:36:44;;;;;;;4.93;4.53;;;;;;;36.45;32.96;99869.69;5061411;28;20197;-61
2022/06/04 06:39:11;;;;;;;7.63;5.28;;;;;;;36.59;33.40;99872.81;5051822;28;20626;-62
2022/06/04 06:41:38;;;;;;;8.63;5.68;;;;;;;36.29;33.73;99874.44;5052577;28;20604;-61
2022/06/04 06:44:07;;;;;;;7.60;5.55;;;;;;;36.38;33.62;99872.31;5051528;28;20200;-62
2022/06/04 06:46:37;;;;;;;12.75;5.28;;;;;;;36.15;33.91;99868.50;5051784;28;20660;-61
2022/06/04 06:49:24;;;;;;;10.30;5.30;;;;;;;36.16;33.73;99865.38;5052099;28;20231;-64
2022/06/04 06:51:54;;;;;;;7.97;5.97;;;;;;;36.55;33.75;99877.47;5052666;28;20207;-62
2022/06/04 06:54:23;;;;;;;8.30;4.65;;;;;;;36.34;33.90;99872.19;5051495;28;20287;-63
2022/06/04 06:56:51;;;;;;;7.65;5.00;;;;;;;36.55;33.75;99871.94;5051818;28;20274;-64
2022/06/04 06:59:24;;;;;;;6.63;5.00;;;;;;;36.71;32.84;99869.97;5051919;28;20193;-63
2022/06/04 07:01:59;;;;;;;7.18;4.75;;;;;;;36.79;32.78;99857.91;5052395;28;20216;-62
2022/06/04 07:04:26;;;;;;;5.32;4.70;;;;;;;36.92;32.53;99864.94;5050810;28;20250;-63
2022/06/04 07:07:01;;;;;;;5.10;4.70;;;;;;;36.96;32.01;99854.72;5051637;28;20195;-63
2022/06/04 07:09:31;;;;;;;4.88;4.45;;;;;;;36.70;32.48;99855.31;5051586;28;20185;-63
2022/06/04 07:11:58;;;;;;;6.25;4.43;;;;;;;36.70;32.57;99857.31;5070465;28;20624;-63
2022/06/04 07:14:29;;;;;;;11.18;4.93;;;;;;;36.38;33.81;99848.16;5073650;28;20259;-62
2022/06/04 07:16:58;;;;;;;22.30;5.97;;;;;;;36.41;33.14;99849.41;5075095;28;20188;-62
2022/06/04 07:19:25;;;;;;;10.40;4.80;;;;;;;36.38;33.18;99847.38;5074832;28;20192;-63
2022/06/04 07:21:59;;;;;;;9.60;4.97;;;;;;;36.35;33.57;99845.34;5075407;28;20265;-64
2022/06/04 07:24:28;;;;;;;6.57;4.70;;;;;;;36.47;33.54;99848.00;5075025;28;20180;-62
2022/06/04 07:26:57;;;;;;;13.70;5.60;;;;;;;36.53;33.13;99844.59;5075967;28;20192;-61
2022/06/04 07:29:26;;;;;;;9.43;5.72;;;;;;;36.63;32.66;99843.25;5074701;28;20291;-61
2022/06/04 07:31:55;;;;;;;6.65;4.50;;;;;;;36.84;32.54;99838.22;5075670;28;20279;-63
2022/06/04 07:34:22;;;;;;;5.30;4.60;;;;;;;36.93;32.13;99841.59;5074509;28;20196;-62
2022/06/04 07:36:51;;;;;;;7.88;4.53;;;;;;;36.99;32.22;99831.84;5074379;28;20274;-70
2022/06/04 07:39:18;;;;;;;6.15;4.43;;;;;;;37.13;32.41;99837.69;5058510;28;20197;-62
2022/06/04 07:41:48;;;;;;;6.53;5.32;;;;;;;37.14;32.09;99833.78;5055210;28;20236;-62
2022/06/04 07:44:16;;;;;;;7.78;4.72;;;;;;;37.17;32.01;99838.59;5054321;28;20197;-63
2022/06/04 07:46:44;;;;;;;5.20;4.70;;;;;;;37.26;31.11;99838.41;5054410;28;20197;-62
2022/06/04 07:49:13;;;;;;;4.53;4.13;;;;;;;37.31;31.72;99838.88;5054928;28;20246;-61
2022/06/04 07:51:41;;;;;;;4.18;3.80;;;;;;;37.36;31.33;99841.38;5055403;28;20235;-61
2022/06/04 07:54:09;;;;;;;4.35;4.03;;;;;;;37.42;31.19;99833.53;5054754;28;20208;-62
2022/06/04 07:56:37;;;;;;;6.35;4.63;;;;;;;37.35;30.98;99838.97;5054187;28;20656;-63
2022/06/04 07:59:08;;;;;;;4.60;4.18;;;;;;;37.50;31.34;99832.53;5054402;28;20250;-63
2022/06/04 08:01:36;;;;;;;9.27;4.32;;;;;;;37.41;31.62;99782.84;5054093;28;20263;-62
2022/06/04 08:04:03;;;;;;;10.82;4.72;;;;;;;37.81;31.37;99824.88;5054122;28;20203;-61
2022/06/04 08:06:32;;;;;;;11.63;4.15;;;;;;;37.85;31.02;99834.06;5054067;28;20193;-62
2022/06/04 08:09:00;;;;;;;5.20;4.07;;;;;;;38.08;30.26;99828.53;5054375;28;20235;-62
2022/06/04 08:11:34;;;;;;;5.38;4.20;;;;;;;38.23;30.23;99830.38;5069100;28;20649;-65
2022/06/04 08:14:06;;;;;;;8.55;4.40;;;;;;;38.34;30.39;99831.34;5073913;28;20582;-61
2022/06/04 08:16:34;;;;;;;5.07;4.00;;;;;;;38.43;29.39;99834.66;5074824;28;20203;-61
2022/06/04 08:19:01;;;;;;;6.95;3.72;;;;;;;38.14;29.75;99824.28;5074179;28;20253;-62
2022/06/04 08:21:28;;;;;;;5.10;4.43;;;;;;;38.19;28.79;99824.78;5073567;28;20287;-63
2022/06/04 08:23:56;;;;;;;10.48;5.10;;;;;;;37.85;30.12;99820.19;5087347;28;20632;-62
2022/06/04 08:26:23;;;;;;;6.72;4.22;;;;;;;37.70;30.01;99815.53;5093358;28;20201;-62
2022/06/04 08:28:52;;;;;;;6.97;4.95;;;;;;;37.52;30.47;99817.16;5093774;28;20203;-62
2022/06/04 08:31:19;;;;;;;7.47;4.75;;;;;;;37.52;30.22;99808.84;5094369;28;20187;-62
2022/06/04 08:33:46;;;;;;;4.68;4.28;;;;;;;37.49;29.76;99812.31;5094130;28;20963;-62
2022/06/04 08:36:16;;;;;;;8.68;4.13;;;;;;;37.53;30.07;99807.66;5093764;28;20187;-62
2022/06/04 08:38:44;;;;;;;4.78;4.38;;;;;;;37.63;30.11;99809.06;5093225;28;20656;-63
2022/06/04 08:41:27;;;;;;;8.00;4.47;;;;;;;37.63;30.08;99812.63;5093887;28;20256;-62
2022/06/04 08:44:00;;;;;;;6.82;4.60;;;;;;;37.71;29.77;99811.59;5093487;28;20183;-62
2022/06/04 08:46:32;;;;;;;8.98;4.07;;;;;;;37.70;30.00;99807.22;5093987;28;20186;-62
2022/06/04 08:49:03;;;;;;;8.32;3.95;;;;;;;37.80;28.95;99806.59;5093334;28;20190;-62
2022/06/04 08:51:31;;;;;;;6.28;4.00;;;;;;;36.37;31.92;99787.63;5093901;28;20258;-62
2022/06/04 08:57:32;;;;;;;7.93;4.22;;;;;;;36.79;30.60;99789.44;5093454;28;20195;-62
2022/06/04 08:59:41;;;;;;;10.23;4.00;;;;;;;36.30;31.80;99787.50;5093565;28;20650;-62
2022/06/04 09:02:14;;;;;;;8.73;4.38;;;;;;;36.55;31.72;99786.88;5093100;28;20268;-62
2022/06/04 09:04:52;;;;;;;6.35;4.07;;;;;;;36.85;31.17;99782.47;5093281;28;20195;-62
2022/06/04 09:07:23;;;;;;;4.30;3.88;;;;;;;37.07;30.80;99778.19;5093113;28;20191;-62
2022/06/04 09:09:56;;;;;;;5.03;3.80;;;;;;;37.39;29.79;99776.84;5092087;28;20184;-62
2022/06/04 09:12:33;;;;;;;6.55;3.78;;;;;;;36.82;30.44;99776.84;5072803;28;20656;-63
2022/06/04 09:15:05;;;;;;;9.55;3.90;;;;;;;37.06;29.63;99777.38;5073244;28;20249;-63
2022/06/04 09:17:41;;;;;;;6.05;3.50;;;;;;;37.01;29.55;99771.31;5073284;28;20219;-62
2022/06/04 09:20:20;;;;;;;5.57;3.33;;;;;;;37.21;30.16;99767.41;5072592;28;20237;-66
2022/06/04 09:22:49;;;;;;;6.13;3.33;;;;;;;36.33;30.40;99776.50;5075099;28;21012;-64
2022/06/04 09:25:17;;;;;;;7.15;3.28;;;;;;;36.24;28.97;99767.59;5092627;28;20190;-64
2022/06/04 09:27:56;;;;;;;7.20;3.58;;;;;;;36.55;28.95;99772.25;5092871;28;20662;-65
2022/06/04 09:30:28;;;;;;;4.45;3.90;;;;;;;36.15;30.54;99753.09;5091982;28;20641;-63
2022/06/04 09:33:19;;;;;;;4.70;3.55;;;;;;;36.32;30.39;99751.94;5090505;28;20613;-65
2022/06/04 09:35:46;;;;;;;5.60;3.20;;;;;;;36.38;30.44;99751.28;5091755;28;20247;-65
2022/06/04 09:38:24;;;;;;;6.43;3.40;;;;;;;36.01;30.89;99740.91;5091011;28;20625;-64
2022/06/04 09:40:59;;;;;;;5.45;3.10;;;;;;;36.30;30.52;99752.28;5089922;28;20640;-64
2022/06/04 09:43:27;;;;;;;6.22;2.92;;;;;;;36.59;28.58;99734.38;5050334;28;20294;-64
2022/06/04 09:45:57;;;;;;;5.57;3.15;;;;;;;36.75;27.91;99732.38;5048571;28;20203;-67
2022/06/04 09:48:27;;;;;;;5.18;3.53;;;;;;;36.49;28.88;99740.47;5047233;28;20917;-68
2022/06/04 09:50:57;;;;;;;8.02;3.05;;;;;;;35.96;29.01;99744.72;5063380;28;20296;-68
2022/06/04 09:53:46;;;;;;;6.85;3.80;;;;;;;36.22;28.45;99733.13;5066093;28;20199;-70
2022/06/04 09:56:31;;;;;;;6.70;2.88;;;;;;;35.91;29.27;99731.16;5065341;28;20549;-68
2022/06/04 09:59:16;;;;;;;8.63;3.17;;;;;;;36.16;29.69;99726.22;5069522;28;20187;-67
2022/06/04 10:01:53;;;;;;;6.47;3.20;;;;;;;36.09;29.88;99715.00;5064204;28;20623;-67
2022/06/04 10:04:20;;;;;;;8.88;3.55;;;;;;;36.01;29.77;99710.47;5068917;28;20190;-69
2022/06/04 10:07:13;;;;;;;6.00;3.38;;;;;;;35.92;29.35;99704.28;5067974;28;20192;-69
2022/06/04 10:09:57;;;;;;;9.43;3.75;;;;;;;36.13;30.26;99704.81;5069950;28;20179;-65
2022/06/04 10:15:18;;;;;;;4.70;3.70;;;;;;;36.56;30.03;99690.78;5070266;28;20203;-64
2022/06/04 10:17:44;;;;;;;7.60;3.22;;;;;;;36.30;29.16;99713.53;5070417;28;20826;-64
2022/06/04 10:20:24;;;;;;;6.72;2.97;;;;;;;36.42;29.06;99693.28;5071376;28;20659;-65
2022/06/04 10:22:52;;;;;;;5.55;3.40;;;;;;;36.29;28.70;99694.56;5071631;28;20207;-63
2022/06/04 10:25:21;;;;;;;9.63;3.05;;;;;;;36.14;29.12;99689.81;5071219;28;20196;-65
2022/06/04 10:27:57;;;;;;;7.80;3.40;;;;;;;36.14;29.23;99690.59;5069177;28;20191;-67
2022/06/04 10:30:31;;;;;;;7.15;2.95;;;;;;;36.36;29.09;99697.47;5070939;28;20195;-68
2022/06/04 10:33:08;;;;;;;9.98;3.33;;;;;;;36.50;29.55;99686.72;5069922;28;20183;-64
2022/06/04 10:35:51;;;;;;;3.33;2.88;;;;;;;36.49;29.37;99683.13;5069904;28;20266;-64
2022/06/04 10:38:27;;;;;;;10.35;3.55;;;;;;;36.50;29.06;99670.13;5070027;28;20612;-64
2022/06/04 10:41:11;;;;;;;4.43;3.28;;;;;;;36.35;29.01;99673.72;5070126;28;20195;-66
2022/06/04 10:44:16;;;;;;;8.02;3.15;;;;;;;36.34;28.04;99677.66;5071017;28;20204;-64
2022/06/04 10:46:56;;;;;;;6.90;3.05;;;;;;;36.30;27.88;99679.56;5043712;28;20253;-65
2022/06/04 10:49:40;;;;;;;5.20;3.28;;;;;;;36.41;28.51;99675.84;5071279;28;20183;-65
2022/06/04 10:52:20;;;;;;;6.70;2.97;;;;;;;36.47;28.15;99665.28;5071770;28;20721;-65
2022/06/04 10:54:54;;;;;;;3.53;3.22;;;;;;;36.14;29.13;99662.94;5073496;28;20184;-65
2022/06/04 10:57:27;;;;;;;4.97;2.95;;;;;;;36.31;29.50;99668.13;5073535;28;20192;-66
2022/06/04 10:59:59;;;;;;;3.50;3.20;;;;;;;36.31;29.27;99657.06;5073680;28;20188;-64
2022/06/04 11:02:35;;;;;;;4.70;3.20;;;;;;;36.41;28.32;99661.19;5073839;28;20263;-67
2022/06/04 11:05:06;;;;;;;6.47;3.25;;;;;;;36.35;29.06;99655.16;5074458;28;20191;-65
2022/06/04 11:07:52;;;;;;;7.00;6.00;;;;;;;36.14;29.26;99645.56;5073854;28;20184;-65
2022/06/04 11:10:22;;;;;;;6.38;3.60;;;;;;;36.33;29.76;99637.28;5068911;28;20571;-64
2022/06/04 11:12:57;;;;;;;4.43;3.40;;;;;;;35.73;30.67;99646.91;5054349;28;20188;-64
2022/06/04 11:15:30;;;;;;;3.88;3.08;;;;;;;35.94;29.82;99641.94;5054951;28;20258;-63
2022/06/04 11:18:04;;;;;;;4.60;3.40;;;;;;;36.05;30.02;99647.72;5054610;28;20567;-64
2022/06/04 11:20:36;;;;;;;4.00;2.80;;;;;;;35.89;30.38;99639.44;5054357;28;20188;-67
2022/06/04 11:23:25;;;;;;;4.15;3.47;;;;;;;35.78;29.81;99632.88;5053835;28;20204;-67
2022/06/04 11:25:58;;;;;;;4.70;3.35;;;;;;;35.72;30.16;99633.47;5054358;28;20287;-64
2022/06/04 11:28:27;;;;;;;5.72;2.70;;;;;;;35.50;30.24;99625.81;5053762;28;20250;-64
2022/06/04 11:31:05;;;;;;;4.88;3.17;;;;;;;35.18;30.45;99622.22;5054287;28;20223;-65
2022/06/04 11:33:45;;;;;;;4.07;3.88;;;;;;;35.02;30.27;99604.03;5053701;28;20193;-66
2022/06/04 11:36:23;;;;;;;7.88;3.58;;;;;;;34.78;31.27;99615.19;5052270;28;20678;-64
2022/06/04 11:39:03;;;;;;;3.38;2.85;;;;;;;34.35;31.92;99607.63;5054519;28;20271;-65
2022/06/04 11:41:40;;;;;;;6.07;3.60;;;;;;;34.25;32.78;99602.56;5052988;28;20270;-65
2022/06/04 11:44:25;;;;;;;3.83;3.20;;;;;;;34.31;33.29;99597.63;5054233;28;20698;-64
2022/06/04 11:47:03;;;;;;;5.57;3.60;;;;;;;34.57;32.30;99595.25;5054297;28;20210;-64
2022/06/04 11:49:36;;;;;;;3.88;3.28;;;;;;;34.67;32.84;99592.78;5053337;28;20192;-66
2022/06/04 11:52:18;;;;;;;7.95;3.78;;;;;;;34.40;33.12;99581.75;5052225;28;20196;-67
2022/06/04 11:55:14;;;;;;;6.70;3.53;;;;;;;34.53;33.26;99580.56;5052016;28;20189;-64
2022/06/04 11:57:53;;;;;;;6.05;3.65;;;;;;;34.43;33.58;99575.53;5052998;28;20618;-63
2022/06/04 12:00:24;;;;;;;6.75;3.55;;;;;;;33.84;34.21;99577.28;5053180;28;20184;-63
2022/06/04 12:02:59;;;;;;;3.88;3.67;;;;;;;33.48;34.47;99574.53;5053785;28;20208;-62
2022/06/04 12:05:39;;;;;;;6.07;3.40;;;;;;;33.40;35.30;99561.66;5054637;28;20195;-63